Terminal Aerodrome Forecast
Issued by NWS Duluth, MN

Home | Current Version | Previous Version | Text Only | Print | Product List | Glossary On
Versions: 1 2 3 4 5 6 7 8 9 10 11 12 13 14 15 16 17 18 19 20 21 22 23 24
000
FTUS43 KDLH 271300 RRB
TAFDLH
TAF AMD
KDLH 271301Z 2713/2812 32006KT P6SM SKC
     FM271800 VRB04KT P6SM SKC
     FM280600 20006KT P6SM SCT040 OVC100
     FM281000 14007KT 5SM -SN SCT015 OVC025=

USA.gov is the U.S. government's official web portal to all federal, state and local government web resources and services.